Time;durP1;ratioP1;P1;durP2;ratioP2;P2;SDS_P1;SDS_P2;PMS_P1;PMS_P2;Temp;Humidity;BMP_temperature;BMP_pressure;BME280_temperature;BME280_humidity;BME280_pressure;Samples;Min_cycle;Max_cycle;Signal;HPM_P1;HPM_P2
2023/09/02 00:00:23;;;;;;;54.40;48.63;;;14.60;99.90;;;;;;6127509;23;20409;-82
2023/09/02 00:02:49;;;;;;;61.60;52.92;;;14.60;99.90;;;;;;6103990;23;20092;-82
2023/09/02 00:05:14;;;;;;;65.55;53.40;;;14.60;99.90;;;;;;6103973;23;20080;-82
2023/09/02 00:07:40;;;;;;;64.60;51.72;;;14.50;99.90;;;;;;6105624;23;20062;-82
2023/09/02 00:10:06;;;;;;;66.13;54.13;;;14.50;99.90;;;;;;6105540;23;20088;-81
2023/09/02 00:12:31;;;;;;;107.85;56.33;;;14.50;99.90;;;;;;6129161;23;20520;-81
2023/09/02 00:14:57;;;;;;;57.80;46.97;;;14.50;99.90;;;;;;6105555;23;20017;-81
2023/09/02 00:17:23;;;;;;;44.75;40.55;;;14.40;99.90;;;;;;6105588;23;20028;-82
2023/09/02 00:19:48;;;;;;;58.25;48.17;;;14.40;99.90;;;;;;6105420;23;20481;-82
2023/09/02 00:22:14;;;;;;;69.45;50.00;;;14.30;99.90;;;;;;6129331;23;20100;-81
2023/09/02 00:24:39;;;;;;;149.88;59.15;;;14.40;99.90;;;;;;6105577;23;20013;-81
2023/09/02 00:27:05;;;;;;;44.63;39.70;;;14.40;99.90;;;;;;6129350;23;20020;-82
2023/09/02 00:29:31;;;;;;;101.85;55.00;;;14.30;99.90;;;;;;6105455;23;20350;-82
2023/09/02 00:31:57;;;;;;;77.05;51.97;;;14.30;99.90;;;;;;6129371;23;20462;-82
2023/09/02 00:34:22;;;;;;;47.25;42.63;;;14.30;99.90;;;;;;6105190;23;20017;-81
2023/09/02 00:36:49;;;;;;;47.35;42.65;;;14.30;99.90;;;;;;6105355;23;20081;-82
2023/09/02 00:39:15;;;;;;;60.95;48.42;;;14.30;99.90;;;;;;6129513;23;20098;-81
2023/09/02 00:41:49;;;;;;;55.70;47.65;;;14.30;99.90;;;;;;6129513;23;20017;-81
2023/09/02 00:44:15;;;;;;;58.30;50.53;;;14.30;99.90;;;;;;6103941;23;20033;-81
2023/09/02 00:46:41;;;;;;;49.35;44.10;;;14.30;99.90;;;;;;6128835;23;20010;-81
2023/09/02 00:49:06;;;;;;;62.10;54.05;;;14.40;99.90;;;;;;6129322;23;20005;-81
2023/09/02 00:51:32;;;;;;;57.97;51.35;;;14.40;99.90;;;;;;6129805;23;20190;-81
2023/09/02 00:53:57;;;;;;;77.90;56.90;;;14.40;99.90;;;;;;6129488;23;20017;-81
2023/09/02 00:56:27;;;;;;;74.35;56.45;;;14.40;99.90;;;;;;6104331;23;20013;-82
2023/09/02 00:58:58;;;;;;;74.90;58.60;;;14.30;99.90;;;;;;6129341;23;20010;-82
2023/09/02 01:01:24;;;;;;;49.95;45.15;;;14.40;99.90;;;;;;6129496;23;20045;-81
2023/09/02 01:03:49;;;;;;;77.75;55.72;;;14.40;99.90;;;;;;6105035;23;20009;-81
2023/09/02 01:06:16;;;;;;;59.95;53.45;;;14.40;99.90;;;;;;6128806;23;20092;-81
2023/09/02 01:08:44;;;;;;;70.45;57.08;;;14.40;99.90;;;;;;6129188;23;20009;-81
2023/09/02 01:11:10;;;;;;;56.25;50.47;;;14.40;99.90;;;;;;6104458;23;20045;-81
2023/09/02 01:13:36;;;;;;;57.55;51.58;;;14.50;99.90;;;;;;6128752;23;20009;-81
2023/09/02 01:16:02;;;;;;;60.42;54.28;;;14.50;99.90;;;;;;6104356;23;20010;-81
2023/09/02 01:18:28;;;;;;;60.58;54.15;;;14.50;99.90;;;;;;6129109;23;20009;-81
2023/09/02 01:21:20;;;;;;;60.42;53.88;;;14.50;99.90;;;;;;6129166;23;20009;-81
2023/09/02 01:24:21;;;;;;;58.70;52.65;;;14.50;99.90;;;;;;6128849;23;20092;-81
2023/09/02 01:27:16;;;;;;;61.28;54.65;;;14.50;99.90;;;;;;6104835;23;20512;-81
2023/09/02 01:30:03;;;;;;;61.20;54.50;;;14.50;99.90;;;;;;6129344;23;20044;-81
2023/09/02 01:32:33;;;;;;;59.30;53.33;;;14.50;99.90;;;;;;6129378;23;20457;-81
2023/09/02 01:35:04;;;;;;;60.00;53.90;;;14.60;99.90;;;;;;6103767;23;20041;-82
2023/09/02 01:37:37;;;;;;;73.50;61.03;;;14.50;99.90;;;;;;6103966;23;20009;-81
2023/09/02 01:40:06;;;;;;;60.92;54.45;;;14.60;99.90;;;;;;6104526;23;20354;-81
2023/09/02 01:42:33;;;;;;;60.05;54.00;;;14.50;99.90;;;;;;6104429;23;20014;-81
2023/09/02 01:45:00;;;;;;;67.53;59.35;;;14.60;99.90;;;;;;6128281;23;20029;-81
2023/09/02 01:47:27;;;;;;;64.75;57.83;;;14.60;99.90;;;;;;6128903;23;20009;-81
2023/09/02 01:49:54;;;;;;;64.75;57.00;;;14.60;99.90;;;;;;6104778;23;20021;-82
2023/09/02 01:52:20;;;;;;;72.03;60.13;;;14.60;99.90;;;;;;6104712;23;20473;-82
2023/09/02 01:54:46;;;;;;;70.85;61.97;;;14.60;99.90;;;;;;6127878;23;20017;-82
2023/09/02 01:57:12;;;;;;;67.47;60.13;;;14.60;99.90;;;;;;6104580;23;20438;-82
2023/09/02 01:59:38;;;;;;;65.18;58.17;;;14.60;99.90;;;;;;6104574;23;20020;-82
2023/09/02 02:02:04;;;;;;;70.45;62.97;;;14.60;99.90;;;;;;6128998;23;20084;-82
2023/09/02 02:07:17;;;;;;;85.88;66.70;;;14.60;99.90;;;;;;6154254;23;20512;-75
2023/09/02 02:09:48;;;;;;;76.93;65.53;;;14.60;99.90;;;;;;6127545;23;20072;-75
2023/09/02 02:12:14;;;;;;;71.30;61.55;;;14.60;99.90;;;;;;6128394;23;20040;-75
2023/09/02 02:14:40;;;;;;;71.90;63.90;;;14.60;99.90;;;;;;6128019;23;20044;-75
2023/09/02 02:17:06;;;;;;;68.57;61.47;;;14.60;99.90;;;;;;6128015;23;20025;-75
2023/09/02 02:19:32;;;;;;;67.55;60.55;;;14.60;99.90;;;;;;6103630;23;20009;-75
2023/09/02 02:21:58;;;;;;;66.72;59.80;;;14.70;99.90;;;;;;6128160;23;20017;-75
2023/09/02 02:24:24;;;;;;;70.55;63.15;;;14.70;99.90;;;;;;6127594;23;20513;-75
2023/09/02 02:26:50;;;;;;;92.30;70.40;;;14.70;99.90;;;;;;6128243;23;20096;-75
2023/09/02 02:29:16;;;;;;;69.25;62.15;;;14.70;99.90;;;;;;6127044;23;20045;-75
2023/09/02 02:31:41;;;;;;;90.63;72.25;;;14.70;99.90;;;;;;6128006;23;20013;-75
2023/09/02 02:34:07;;;;;;;67.80;60.80;;;14.70;99.90;;;;;;6127576;23;20064;-75
2023/09/02 02:36:32;;;;;;;73.55;64.88;;;14.70;99.90;;;;;;6128082;23;20021;-75
2023/09/02 02:38:58;;;;;;;69.28;62.15;;;14.70;99.90;;;;;;6127383;23;20064;-75
2023/09/02 02:41:23;;;;;;;75.45;66.47;;;14.70;99.90;;;;;;6127415;23;20072;-75
2023/09/02 02:43:50;;;;;;;97.78;73.90;;;14.70;99.90;;;;;;6127825;23;20010;-75
2023/09/02 02:46:15;;;;;;;85.93;69.35;;;14.70;99.90;;;;;;6103510;23;20446;-75
2023/09/02 02:48:41;;;;;;;75.35;65.25;;;14.70;99.90;;;;;;6127521;23;20010;-75
2023/09/02 02:51:06;;;;;;;106.25;75.75;;;14.70;99.90;;;;;;6127698;23;20021;-75
2023/09/02 02:53:32;;;;;;;73.78;65.93;;;14.70;99.90;;;;;;6128069;23;20349;-75
2023/09/02 02:56:02;;;;;;;77.72;66.18;;;14.70;99.90;;;;;;6127120;23;20009;-75
2023/09/02 02:58:27;;;;;;;81.57;68.65;;;14.80;99.90;;;;;;6103334;23;20006;-75
2023/09/02 03:01:02;;;;;;;89.40;71.00;;;14.70;99.90;;;;;;6103133;23;20016;-75
2023/09/02 03:03:28;;;;;;;78.05;66.97;;;14.70;99.90;;;;;;6102936;23;20022;-75
2023/09/02 03:05:53;;;;;;;72.07;64.20;;;14.70;99.90;;;;;;6127552;23;20342;-75
2023/09/02 03:08:19;;;;;;;81.13;65.40;;;14.70;99.90;;;;;;6127580;23;20017;-75
2023/09/02 03:10:44;;;;;;;81.43;67.80;;;14.80;99.90;;;;;;6127747;23;20013;-75
2023/09/02 03:13:10;;;;;;;93.18;71.95;;;14.80;99.90;;;;;;6127355;23;20021;-75
2023/09/02 03:15:36;;;;;;;92.10;71.40;;;14.80;99.90;;;;;;6127407;23;20056;-75
2023/09/02 03:18:01;;;;;;;86.25;68.53;;;14.70;99.90;;;;;;6127710;23;20425;-75
2023/09/02 03:20:27;;;;;;;79.65;69.55;;;14.80;99.90;;;;;;6127853;23;20048;-75
2023/09/02 03:22:52;;;;;;;76.50;65.05;;;14.70;99.90;;;;;;6127085;23;20358;-75
2023/09/02 03:25:18;;;;;;;86.32;67.85;;;14.70;99.90;;;;;;6127419;23;20343;-75
2023/09/02 03:27:44;;;;;;;85.50;69.55;;;14.80;99.90;;;;;;6127197;23;20014;-75
2023/09/02 03:30:09;;;;;;;163.80;88.50;;;14.70;99.90;;;;;;6127863;23;20084;-75
2023/09/02 03:32:35;;;;;;;92.22;71.78;;;14.70;99.90;;;;;;6127296;23;20092;-75
2023/09/02 03:35:04;;;;;;;94.30;70.82;;;14.70;99.90;;;;;;6127531;23;20022;-75
2023/09/02 03:37:29;;;;;;;109.47;78.10;;;14.70;99.90;;;;;;6102953;23;20523;-75
2023/09/02 03:39:55;;;;;;;80.40;68.35;;;14.70;99.90;;;;;;6127923;23;20013;-75
2023/09/02 03:42:21;;;;;;;171.45;81.95;;;14.70;99.90;;;;;;6104771;23;20022;-75
2023/09/02 03:44:47;;;;;;;79.32;63.90;;;14.70;99.90;;;;;;6129766;23;20365;-75
2023/09/02 03:47:12;;;;;;;313.13;100.55;;;14.70;99.90;;;;;;6128969;23;20009;-75
2023/09/02 03:49:38;;;;;;;138.98;79.38;;;14.70;99.90;;;;;;6129687;23;20342;-76
2023/09/02 03:52:03;;;;;;;90.07;71.43;;;14.80;99.90;;;;;;6129335;23;20327;-75
2023/09/02 03:54:29;;;;;;;80.60;65.78;;;14.70;99.90;;;;;;6129371;23;20014;-75
2023/09/02 03:56:54;;;;;;;90.63;71.63;;;14.70;99.90;;;;;;6129507;23;20021;-75
2023/09/02 03:59:20;;;;;;;93.03;73.38;;;14.70;99.90;;;;;;6129532;23;20080;-75
2023/09/02 04:01:46;;;;;;;89.43;72.55;;;14.80;99.90;;;;;;6104740;23;20161;-75
2023/09/02 04:04:11;;;;;;;141.25;82.35;;;14.80;99.90;;;;;;6129295;23;20499;-75
2023/09/02 04:06:38;;;;;;;104.70;75.28;;;14.80;99.90;;;;;;6129448;23;20520;-75
2023/09/02 04:09:05;;;;;;;110.72;78.30;;;14.80;99.90;;;;;;6152989;23;20041;-75
2023/09/02 04:11:31;;;;;;;99.18;74.55;;;14.70;99.90;;;;;;6105165;23;20056;-75
2023/09/02 04:13:57;;;;;;;104.63;76.60;;;14.70;99.90;;;;;;6128633;23;20017;-75
2023/09/02 04:16:22;;;;;;;121.68;80.28;;;14.70;99.90;;;;;;6127273;23;20018;-75
2023/09/02 04:18:48;;;;;;;107.22;76.78;;;14.70;99.90;;;;;;6127121;23;20010;-75
2023/09/02 04:21:13;;;;;;;109.43;78.97;;;14.70;99.90;;;;;;6128814;23;20013;-75
2023/09/02 04:23:41;;;;;;;118.90;79.60;;;14.70;99.90;;;;;;6129511;23;20013;-75
2023/09/02 04:26:07;;;;;;;107.70;78.97;;;14.70;99.90;;;;;;6128484;23;20357;-75
2023/09/02 04:28:32;;;;;;;112.78;79.55;;;14.70;99.90;;;;;;6128180;23;20014;-75
2023/09/02 04:30:59;;;;;;;116.93;80.63;;;14.70;99.90;;;;;;6103969;23;20020;-75
2023/09/02 04:33:25;;;;;;;109.38;77.03;;;14.60;99.90;;;;;;6129412;23;20013;-75
2023/09/02 04:35:51;;;;;;;92.35;71.72;;;14.70;99.90;;;;;;6128906;23;20325;-75
2023/09/02 04:38:16;;;;;;;160.40;88.38;;;14.70;99.90;;;;;;6128557;23;20013;-75
2023/09/02 04:40:44;;;;;;;175.35;91.57;;;14.70;99.90;;;;;;6128964;23;20045;-75
2023/09/02 04:43:11;;;;;;;98.03;74.30;;;14.70;99.90;;;;;;6128791;23;20056;-75
2023/09/02 04:45:39;;;;;;;95.72;73.47;;;14.70;99.90;;;;;;6104454;23;20056;-75
2023/09/02 04:48:05;;;;;;;164.75;90.20;;;14.70;99.90;;;;;;6104203;23;20438;-75
2023/09/02 04:50:32;;;;;;;114.15;80.03;;;14.70;99.90;;;;;;6129167;23;20015;-75
2023/09/02 04:52:59;;;;;;;98.75;73.93;;;14.70;99.90;;;;;;6128453;23;20390;-75
2023/09/02 04:55:25;;;;;;;99.72;74.68;;;14.70;99.90;;;;;;6103755;23;20009;-76
2023/09/02 04:57:52;;;;;;;135.00;80.65;;;14.70;99.90;;;;;;6104263;23;20021;-76
2023/09/02 05:00:17;;;;;;;103.03;75.88;;;14.70;99.90;;;;;;6128980;23;20009;-76
2023/09/02 05:02:44;;;;;;;129.55;81.65;;;14.80;99.90;;;;;;6129136;23;20286;-76
2023/09/02 05:05:10;;;;;;;136.80;85.47;;;14.70;99.90;;;;;;6127656;23;20009;-77
2023/09/02 05:07:36;;;;;;;134.18;84.22;;;14.70;99.90;;;;;;6128644;23;20010;-77
2023/09/02 05:10:02;;;;;;;147.65;88.05;;;14.80;99.90;;;;;;6129138;23;20064;-77
2023/09/02 05:12:27;;;;;;;136.95;84.95;;;14.80;99.90;;;;;;6129041;23;20068;-77
2023/09/02 05:14:53;;;;;;;121.10;80.70;;;14.70;99.90;;;;;;6127468;23;20024;-77
2023/09/02 05:17:19;;;;;;;156.68;88.45;;;14.80;99.90;;;;;;6127525;23;20018;-77
2023/09/02 05:19:45;;;;;;;123.18;82.05;;;14.70;99.90;;;;;;6129292;23;20089;-77
2023/09/02 05:22:10;;;;;;;124.65;81.63;;;14.70;99.90;;;;;;6127703;23;20014;-77
2023/09/02 05:24:36;;;;;;;145.52;87.88;;;14.80;99.90;;;;;;6128441;23;20017;-77
2023/09/02 05:27:01;;;;;;;147.00;88.40;;;14.70;99.90;;;;;;6128809;23;20019;-77
2023/09/02 05:29:27;;;;;;;129.77;83.75;;;14.70;99.90;;;;;;6153370;23;20457;-77
2023/09/02 05:31:53;;;;;;;145.20;87.97;;;14.80;99.90;;;;;;6126572;23;20528;-77
2023/09/02 05:34:18;;;;;;;132.32;86.28;;;14.80;99.90;;;;;;6126638;23;20513;-77
2023/09/02 05:36:44;;;;;;;139.65;88.25;;;14.80;99.90;;;;;;6128373;23;20392;-77
2023/09/02 05:39:10;;;;;;;116.15;82.60;;;14.80;99.90;;;;;;6128548;23;20354;-77
2023/09/02 05:41:36;;;;;;;127.82;83.18;;;14.80;99.90;;;;;;6128256;23;20040;-77
2023/09/02 05:44:01;;;;;;;157.02;91.78;;;14.80;99.90;;;;;;6128262;23;20443;-77
2023/09/02 05:46:27;;;;;;;189.00;96.70;;;14.80;99.90;;;;;;6127246;23;20005;-77
2023/09/02 05:48:52;;;;;;;151.68;90.10;;;14.90;99.90;;;;;;6128517;23;20067;-77
2023/09/02 05:51:18;;;;;;;183.40;94.80;;;14.80;99.90;;;;;;6128490;23;20012;-77
2023/09/02 05:53:46;;;;;;;149.52;89.53;;;14.80;99.90;;;;;;6104141;23;20125;-77
2023/09/02 05:56:12;;;;;;;160.40;91.80;;;14.90;99.90;;;;;;6126306;23;20020;-77
2023/09/02 05:58:37;;;;;;;136.30;85.80;;;14.90;99.90;;;;;;6128256;23;20037;-77
2023/09/02 06:01:04;;;;;;;109.65;78.15;;;14.90;99.90;;;;;;6127449;23;20018;-77
2023/09/02 06:03:29;;;;;;;131.77;85.00;;;14.90;99.90;;;;;;6128063;23;20044;-77
2023/09/02 06:05:55;;;;;;;218.90;99.65;;;14.90;99.90;;;;;;6127976;23;20088;-77
2023/09/02 06:08:20;;;;;;;134.00;83.13;;;15.00;99.90;;;;;;6126947;23;20125;-77
2023/09/02 06:10:59;;;;;;;160.70;87.32;;;14.90;99.90;;;;;;6128026;23;20012;-77
2023/09/02 06:13:25;;;;;;;197.48;96.00;;;15.00;99.90;;;;;;6152604;23;20014;-77
2023/09/02 06:15:51;;;;;;;134.27;82.05;;;15.00;99.90;;;;;;6127976;23;20021;-77
2023/09/02 06:18:16;;;;;;;136.48;83.05;;;15.00;99.90;;;;;;6127818;23;20009;-77
2023/09/02 06:20:42;;;;;;;234.73;97.40;;;15.00;99.90;;;;;;6127450;23;20357;-78
2023/09/02 06:23:07;;;;;;;160.85;88.25;;;15.00;99.90;;;;;;6127376;23;20017;-77
2023/09/02 06:25:33;;;;;;;145.73;84.75;;;15.00;99.90;;;;;;6127884;23;20088;-77
2023/09/02 06:27:58;;;;;;;195.75;92.28;;;15.00;99.90;;;;;;6128061;23;20006;-77
2023/09/02 06:30:24;;;;;;;206.05;97.22;;;15.00;99.90;;;;;;6103873;23;20149;-77
2023/09/02 06:32:50;;;;;;;173.52;92.00;;;15.00;99.90;;;;;;6128016;23;20040;-77
2023/09/02 06:35:16;;;;;;;189.10;91.75;;;15.00;99.90;;;;;;6127381;23;20053;-78
2023/09/02 06:37:42;;;;;;;168.30;91.75;;;15.10;99.90;;;;;;6127904;23;20018;-77
2023/09/02 06:40:08;;;;;;;138.07;83.68;;;15.10;99.90;;;;;;6128255;23;20040;-77
2023/09/02 06:42:33;;;;;;;127.93;82.47;;;15.10;99.90;;;;;;6126714;23;20017;-77
2023/09/02 06:44:59;;;;;;;138.68;84.85;;;15.10;99.90;;;;;;6128172;23;20010;-77
2023/09/02 06:47:25;;;;;;;110.28;76.78;;;15.20;99.90;;;;;;6152498;23;20020;-78
2023/09/02 06:49:50;;;;;;;112.97;77.45;;;15.20;99.90;;;;;;6127734;23;20013;-77
2023/09/02 06:52:16;;;;;;;113.75;80.15;;;15.20;99.90;;;;;;6127198;23;20014;-78
2023/09/02 06:54:42;;;;;;;100.82;75.40;;;15.30;99.90;;;;;;6126981;23;20013;-77
2023/09/02 06:57:07;;;;;;;117.38;79.25;;;15.30;99.90;;;;;;6127669;23;20036;-78
2023/09/02 06:59:34;;;;;;;187.63;89.60;;;15.30;99.90;;;;;;6128113;23;20028;-77
2023/09/02 07:01:59;;;;;;;123.70;79.95;;;15.30;99.90;;;;;;6127520;23;20148;-77
2023/09/02 07:04:25;;;;;;;149.65;85.70;;;15.20;99.90;;;;;;6127343;23;20431;-77
2023/09/02 07:06:51;;;;;;;240.45;96.88;;;15.30;99.90;;;;;;6127762;23;20020;-78
2023/09/02 07:09:16;;;;;;;193.32;94.28;;;15.30;99.90;;;;;;6127772;23;20051;-78
2023/09/02 07:11:42;;;;;;;125.20;80.25;;;15.30;99.90;;;;;;6127589;23;20417;-78
2023/09/02 07:14:07;;;;;;;137.07;83.20;;;15.30;99.90;;;;;;6127527;23;20335;-77
2023/09/02 07:16:33;;;;;;;182.55;94.20;;;15.40;99.90;;;;;;6127322;23;20091;-78
2023/09/02 07:19:02;;;;;;;127.82;79.28;;;15.30;99.90;;;;;;6126873;23;20049;-78
2023/09/02 07:21:27;;;;;;;92.95;70.65;;;15.30;99.90;;;;;;6126855;23;20100;-78
2023/09/02 07:23:53;;;;;;;102.10;71.10;;;15.40;99.90;;;;;;6126651;23;20014;-78
2023/09/02 07:26:18;;;;;;;111.53;76.28;;;15.40;99.90;;;;;;6127761;23;20006;-78
2023/09/02 07:28:44;;;;;;;106.28;74.65;;;15.40;99.90;;;;;;6127710;23;20020;-78
2023/09/02 07:31:09;;;;;;;105.03;74.53;;;15.40;99.90;;;;;;6127572;23;20020;-78
2023/09/02 07:33:35;;;;;;;114.45;76.82;;;15.40;99.90;;;;;;6127424;23;20534;-78
2023/09/02 07:36:12;;;;;;;107.60;74.15;;;15.40;99.90;;;;;;6127881;23;20101;-77
2023/09/02 07:38:39;;;;;;;129.88;80.28;;;15.50;99.90;;;;;;6127079;23;20017;-77
2023/09/02 07:41:04;;;;;;;86.13;66.70;;;15.40;99.90;;;;;;6126503;23;20017;-77
2023/09/02 07:43:30;;;;;;;116.47;78.53;;;15.50;99.90;;;;;;6127160;23;20056;-78
2023/09/02 07:45:56;;;;;;;208.75;101.55;;;15.60;99.90;;;;;;6127897;23;20009;-76
2023/09/02 07:48:22;;;;;;;118.50;80.43;;;15.60;99.90;;;;;;6127151;23;20064;-79
2023/09/02 07:50:48;;;;;;;138.70;85.90;;;15.80;99.90;;;;;;6103130;23;20032;-77
2023/09/02 07:53:14;;;;;;;81.50;66.85;;;15.90;99.90;;;;;;6127859;23;20018;-77
2023/09/02 07:55:40;;;;;;;69.20;60.88;;;16.10;99.90;;;;;;6127734;23;20013;-77
2023/09/02 07:58:06;;;;;;;72.03;62.33;;;16.20;99.90;;;;;;6126702;23;20053;-78
2023/09/02 08:00:36;;;;;;;63.45;56.30;;;16.20;99.90;;;;;;6126871;23;20018;-78
2023/09/02 08:03:03;;;;;;;61.30;54.65;;;16.30;99.90;;;;;;6127134;23;20017;-78
2023/09/02 08:05:29;;;;;;;71.50;60.42;;;16.30;99.90;;;;;;6131420;23;20024;-82
2023/09/02 08:07:56;;;;;;;60.20;53.60;;;16.40;99.90;;;;;;6132351;23;20069;-82
2023/09/02 08:10:23;;;;;;;110.10;74.30;;;16.40;99.90;;;;;;6132476;23;20019;-82
2023/09/02 08:12:55;;;;;;;58.13;52.08;;;16.50;99.90;;;;;;6132718;23;20017;-82
2023/09/02 08:15:22;;;;;;;60.70;53.78;;;16.50;99.90;;;;;;6133030;23;20073;-82
2023/09/02 08:18:14;;;;;;;55.20;49.22;;;16.50;99.90;;;;;;6132748;23;20044;-82
2023/09/02 08:36:02;;;;;;;53.38;47.83;;;16.50;99.90;;;;;;6198447;23;20017;-80
2023/09/02 08:43:12;;;;;;;53.55;47.95;;;16.50;99.90;;;;;;6037975;23;20063;-81
2023/09/02 08:49:56;;;;;;;48.38;43.70;;;16.70;99.90;;;;;;5992393;23;20425;-82
2023/09/02 08:52:45;;;;;;;46.42;41.75;;;16.80;99.90;;;;;;6037390;23;20093;-80
2023/09/02 08:55:27;;;;;;;73.10;59.47;;;16.90;99.90;;;;;;6146101;23;20013;-79
2023/09/02 08:58:17;;;;;;;49.50;42.60;;;16.90;99.90;;;;;;6142624;23;20009;-80
2023/09/02 09:01:05;;;;;;;55.65;49.58;;;16.90;99.90;;;;;;6138657;23;20008;-79
2023/09/02 09:03:44;;;;;;;48.53;43.83;;;17.00;99.90;;;;;;6138692;23;20009;-79
2023/09/02 09:06:53;;;;;;;58.25;50.47;;;17.10;99.90;;;;;;6187030;23;20025;-80
2023/09/02 09:09:23;;;;;;;50.83;45.80;;;17.20;99.90;;;;;;6138842;23;20017;-80
2023/09/02 09:11:53;;;;;;;58.10;51.88;;;17.20;99.90;;;;;;6139896;23;20044;-79
2023/09/02 09:14:23;;;;;;;48.67;43.60;;;17.20;99.90;;;;;;6137903;23;20449;-80
2023/09/02 09:16:53;;;;;;;48.88;43.88;;;17.30;99.90;;;;;;6160970;23;20017;-81
2023/09/02 09:19:23;;;;;;;60.95;49.50;;;17.30;99.90;;;;;;6137254;23;20406;-80
2023/09/02 09:21:49;;;;;;;45.35;40.90;;;17.30;99.90;;;;;;6137805;23;20389;-80
2023/09/02 09:24:15;;;;;;;42.90;38.60;;;17.40;99.90;;;;;;6136712;23;20009;-80
2023/09/02 09:26:44;;;;;;;35.65;32.25;;;17.50;99.90;;;;;;6136918;23;20016;-79
2023/09/02 09:29:15;;;;;;;34.92;31.60;;;17.70;99.90;;;;;;6161657;23;20020;-79
2023/09/02 09:31:42;;;;;;;34.92;31.50;;;17.70;99.90;;;;;;6136208;23;20017;-80
2023/09/02 09:34:14;;;;;;;39.53;35.65;;;17.80;99.90;;;;;;6161857;23;20075;-79
2023/09/02 09:36:40;;;;;;;34.22;30.88;;;17.80;99.90;;;;;;6136123;23;20036;-79
2023/09/02 09:39:07;;;;;;;35.38;31.98;;;17.90;99.90;;;;;;6134501;23;20353;-80
2023/09/02 09:41:35;;;;;;;33.60;30.45;;;18.00;99.90;;;;;;6111589;23;20017;-79
2023/09/02 09:44:17;;;;;;;34.42;31.15;;;18.00;99.90;;;;;;6160008;23;20326;-80
2023/09/02 09:46:43;;;;;;;32.50;29.38;;;18.10;99.90;;;;;;6111395;23;20020;-79
2023/09/02 09:49:30;;;;;;;39.40;35.53;;;18.10;99.90;;;;;;6135552;23;20013;-80
2023/09/02 09:52:03;;;;;;;29.65;26.98;;;18.20;99.90;;;;;;6109578;23;20021;-79
2023/09/02 09:54:40;;;;;;;30.40;27.63;;;18.40;99.90;;;;;;6159543;23;20084;-80
2023/09/02 09:57:11;;;;;;;30.55;27.67;;;18.70;99.90;;;;;;6136428;23;20013;-79
2023/09/02 09:59:37;;;;;;;33.40;30.02;;;19.00;99.90;;;;;;6136196;23;20024;-80
2023/09/02 10:02:22;;;;;;;32.70;29.55;;;19.00;99.90;;;;;;6136047;23;20156;-80
2023/09/02 10:05:07;;;;;;;30.25;27.38;;;19.10;99.90;;;;;;6135614;23;20016;-80
2023/09/02 10:07:35;;;;;;;28.15;25.50;;;19.10;99.90;;;;;;6160457;23;20020;-79
2023/09/02 10:10:04;;;;;;;29.17;26.50;;;19.10;99.90;;;;;;6135462;23;20013;-80
2023/09/02 10:12:37;;;;;;;30.30;27.45;;;19.10;99.90;;;;;;6136227;23;20296;-80
2023/09/02 10:15:03;;;;;;;25.17;22.83;;;19.10;99.90;;;;;;6135596;23;20024;-80
2023/09/02 10:17:31;;;;;;;24.88;22.73;;;19.10;99.90;;;;;;6134987;23;20071;-82
2023/09/02 10:19:57;;;;;;;25.55;22.90;;;19.20;99.90;;;;;;6134764;23;20024;-81
2023/09/02 10:22:29;;;;;;;29.10;26.35;;;19.10;99.90;;;;;;6135852;23;20017;-80
2023/09/02 10:25:13;;;;;;;32.65;29.30;;;19.10;99.90;;;;;;6135691;23;20515;-81
2023/09/02 10:27:43;;;;;;;31.25;28.38;;;19.00;99.90;;;;;;6160803;23;20020;-81
2023/09/02 10:30:28;;;;;;;27.98;25.38;;;19.00;99.90;;;;;;6135357;23;20045;-81
2023/09/02 10:33:02;;;;;;;28.83;26.13;;;19.00;99.90;;;;;;6136099;23;20021;-80
2023/09/02 10:35:30;;;;;;;30.98;27.90;;;18.90;99.90;;;;;;6159740;23;20017;-81
2023/09/02 10:38:02;;;;;;;26.90;24.45;;;18.90;99.90;;;;;;6133982;23;20021;-80
2023/09/02 10:40:37;;;;;;;25.42;23.02;;;18.80;99.90;;;;;;6160678;23;20017;-81
2023/09/02 10:43:03;;;;;;;24.67;22.48;;;19.10;99.90;;;;;;6133879;23;20028;-81
2023/09/02 10:45:31;;;;;;;25.58;23.38;;;19.60;99.90;;;;;;6135622;23;20017;-82
2023/09/02 10:47:57;;;;;;;25.67;23.35;;;20.00;99.90;;;;;;6134871;23;20052;-80
2023/09/02 10:50:23;;;;;;;26.17;23.98;;;20.40;99.90;;;;;;6136509;23;20064;-81
2023/09/02 10:52:55;;;;;;;29.92;27.23;;;20.90;99.90;;;;;;6136949;23;20021;-80
2023/09/02 10:55:21;;;;;;;25.75;23.35;;;21.10;99.90;;;;;;6135001;23;20017;-80
2023/09/02 10:57:54;;;;;;;22.48;20.40;;;21.30;99.90;;;;;;6159747;23;20017;-81
2023/09/02 11:00:27;;;;;;;22.40;20.30;;;21.10;99.90;;;;;;6138064;23;20100;-81
2023/09/02 11:02:56;;;;;;;22.23;20.23;;;20.70;99.90;;;;;;6137723;23;20016;-81
2023/09/02 11:05:27;;;;;;;20.63;18.73;;;20.30;99.90;;;;;;6137686;23;20048;-80
2023/09/02 11:07:55;;;;;;;20.85;18.92;;;19.90;99.90;;;;;;6161748;23;20021;-81
2023/09/02 11:10:21;;;;;;;20.63;18.70;;;19.70;99.90;;;;;;6162285;23;20028;-79
2023/09/02 11:12:59;;;;;;;20.33;18.52;;;19.90;99.90;;;;;;6161599;23;20070;-82
2023/09/02 11:15:29;;;;;;;20.77;18.77;;;20.40;99.90;;;;;;6162590;23;20073;-81
2023/09/02 11:17:55;;;;;;;19.17;17.38;;;20.80;99.90;;;;;;6138776;23;20013;-80
2023/09/02 11:20:27;;;;;;;20.85;18.85;;;21.00;99.90;;;;;;6138108;23;20048;-81
2023/09/02 11:23:10;;;;;;;21.77;19.58;;;21.00;99.90;;;;;;6136545;23;20048;-85
2023/09/02 11:25:37;;;;;;;20.50;18.60;;;20.80;99.90;;;;;;6161015;23;20013;-83
2023/09/02 11:28:08;;;;;;;20.83;19.02;;;20.50;99.90;;;;;;6137100;23;20441;-81
2023/09/02 11:30:38;;;;;;;20.35;18.40;;;20.60;99.90;;;;;;6160915;23;20017;-82
2023/09/02 11:33:46;;;;;;;23.05;20.65;;;21.00;99.90;;;;;;6152528;23;20093;-82
2023/09/02 11:45:02;;;;;;;;;;;;;;;;;;;;;
2023/09/02 11:54:01;;;;;;;16.33;14.82;;;21.90;99.90;;;;;;5951487;24;20364;-83
2023/09/02 12:03:39;;;;;;;17.60;15.50;;;20.80;99.90;;;;;;6216289;23;20028;-77
2023/09/02 12:06:05;;;;;;;18.58;16.77;;;20.60;99.90;;;;;;6189661;23;20486;-77
2023/09/02 12:08:31;;;;;;;18.00;16.27;;;20.40;99.90;;;;;;6188752;23;20055;-77
2023/09/02 12:11:02;;;;;;;18.67;16.77;;;20.70;99.90;;;;;;6191183;23;20124;-77
2023/09/02 12:13:28;;;;;;;16.13;14.60;;;21.30;99.90;;;;;;6171511;23;20079;-78
2023/09/02 12:15:54;;;;;;;15.40;14.10;;;21.90;99.90;;;;;;6151666;23;20092;-78
2023/09/02 12:18:20;;;;;;;12.98;11.68;;;22.40;99.90;;;;;;6161864;23;20020;-77
2023/09/02 12:20:46;;;;;;;12.05;10.77;;;22.90;99.90;;;;;;6157834;23;20016;-77
2023/09/02 12:23:12;;;;;;;14.50;13.18;;;23.20;99.90;;;;;;6159273;23;20012;-77
2023/09/02 12:25:40;;;;;;;15.30;14.00;;;23.40;99.90;;;;;;6158994;23;20020;-76
2023/09/02 12:28:11;;;;;;;14.60;13.07;;;23.30;99.90;;;;;;6158859;23;20015;-77
2023/09/02 12:30:37;;;;;;;17.52;15.63;;;23.30;99.90;;;;;;6159019;23;20009;-77
2023/09/02 12:33:03;;;;;;;14.32;12.90;;;23.50;99.90;;;;;;6159141;23;20016;-80
2023/09/02 12:35:29;;;;;;;14.95;11.75;;;23.70;99.90;;;;;;6133757;23;20013;-77
2023/09/02 12:38:05;;;;;;;12.48;11.27;;;23.70;99.90;;;;;;6134117;23;20028;-76
2023/09/02 12:40:32;;;;;;;14.13;12.60;;;23.70;99.90;;;;;;6158977;23;20009;-78
2023/09/02 12:42:59;;;;;;;13.85;10.57;;;23.90;99.90;;;;;;6158777;23;20465;-77
2023/09/02 12:45:33;;;;;;;11.35;10.35;;;24.20;99.90;;;;;;6159054;23;20024;-77
2023/09/02 12:48:01;;;;;;;13.77;10.75;;;24.50;99.90;;;;;;6134147;23;20013;-76
2023/09/02 12:50:27;;;;;;;12.05;10.32;;;24.60;99.90;;;;;;6161038;23;20334;-78
2023/09/02 12:52:55;;;;;;;10.73;9.63;;;24.30;99.90;;;;;;6160943;23;20020;-78
2023/09/02 12:55:21;;;;;;;10.80;9.77;;;23.70;99.90;;;;;;6138285;23;20021;-78
2023/09/02 12:57:46;;;;;;;11.82;10.63;;;23.40;99.90;;;;;;6160894;23;20013;-78
2023/09/02 13:00:12;;;;;;;16.23;10.68;;;23.40;99.90;;;;;;6160789;23;20319;-78
2023/09/02 13:02:38;;;;;;;12.02;9.90;;;23.10;99.90;;;;;;6161331;23;20400;-77
2023/09/02 13:05:03;;;;;;;10.82;9.70;;;23.10;99.90;;;;;;6162478;23;20377;-77
2023/09/02 13:07:30;;;;;;;12.23;10.90;;;23.10;99.90;;;;;;6138831;23;20013;-78
2023/09/02 13:09:56;;;;;;;11.68;9.55;;;23.30;99.90;;;;;;6139818;23;20005;-78
2023/09/02 13:12:21;;;;;;;8.60;7.28;;;23.80;99.90;;;;;;6163168;23;20048;-78
2023/09/02 13:14:48;;;;;;;8.05;7.13;;;24.30;99.90;;;;;;6163484;23;20013;-79
2023/09/02 13:17:15;;;;;;;9.20;8.30;;;24.60;99.90;;;;;;6160892;23;20461;-77
2023/09/02 13:19:41;;;;;;;10.30;8.77;;;24.50;99.90;;;;;;6139557;23;20143;-78